Time;durP1;ratioP1;P1;durP2;ratioP2;P2;SDS_P1;SDS_P2;PMS_P1;PMS_P2;Temp;Humidity;BMP_temperature;BMP_pressure;BME280_temperature;BME280_humidity;BME280_pressure;Samples;Min_cycle;Max_cycle;Signal;HPM_P1;HPM_P2
2021/04/24 00:00:37;;;;;;;2.88;2.20;;;14.90;86.90;;;;;;4929503;29;20051;-76
2021/04/24 00:03:07;;;;;;;2.47;1.85;;;14.80;86.80;;;;;;4943914;28;20499;-76
2021/04/24 00:05:38;;;;;;;2.85;2.35;;;14.70;87.40;;;;;;4929487;29;20121;-76
2021/04/24 00:08:09;;;;;;;3.15;2.42;;;14.70;88.20;;;;;;4955441;28;20045;-76
2021/04/24 00:10:39;;;;;;;2.42;2.22;;;14.70;88.40;;;;;;4948158;28;20051;-76
2021/04/24 00:13:08;;;;;;;4.22;2.67;;;14.40;88.60;;;;;;4943532;28;20062;-76
2021/04/24 00:15:37;;;;;;;4.60;2.63;;;14.30;89.60;;;;;;4941424;28;20043;-75
2021/04/24 00:18:06;;;;;;;5.25;2.95;;;13.90;91.70;;;;;;4947201;28;20094;-76
2021/04/24 00:24:23;;;;;;;3.03;2.70;;;13.80;92.40;;;;;;4943843;28;20062;-76
2021/04/24 00:26:51;;;;;;;3.60;2.95;;;13.90;92.40;;;;;;4943897;28;20043;-76
2021/04/24 00:29:22;;;;;;;4.20;3.17;;;13.70;92.50;;;;;;4934744;28;20054;-76
2021/04/24 00:31:50;;;;;;;4.80;2.70;;;13.70;92.70;;;;;;4946615;28;20054;-76
2021/04/24 00:34:18;;;;;;;4.38;2.72;;;13.80;92.60;;;;;;4943399;28;20105;-75
2021/04/24 00:36:47;;;;;;;3.05;2.67;;;13.90;92.30;;;;;;4944301;28;20102;-76
2021/04/24 00:39:16;;;;;;;5.72;3.20;;;13.90;92.60;;;;;;4960190;28;20055;-76
2021/04/24 00:41:47;;;;;;;4.22;2.78;;;14.10;92.30;;;;;;4928238;29;20858;-76
2021/04/24 00:44:16;;;;;;;4.00;2.78;;;14.20;91.90;;;;;;4944521;28;20600;-76
2021/04/24 00:46:45;;;;;;;4.78;3.03;;;14.10;91.60;;;;;;4947562;28;20636;-76
2021/04/24 00:49:13;;;;;;;3.50;2.72;;;14.00;92.10;;;;;;4936605;28;20063;-76
2021/04/24 00:51:41;;;;;;;3.20;2.55;;;13.90;92.20;;;;;;4943958;28;20043;-76
2021/04/24 00:54:10;;;;;;;3.25;2.88;;;14.00;92.50;;;;;;4932591;28;20050;-76
2021/04/24 00:56:38;;;;;;;5.10;3.08;;;14.20;92.00;;;;;;4956412;28;20061;-76
2021/04/24 00:59:33;;;;;;;4.57;2.70;;;14.00;92.10;;;;;;4961661;28;20403;-75
2021/04/24 01:02:02;;;;;;;5.65;3.13;;;14.00;91.80;;;;;;4965945;28;20049;-76
2021/04/24 01:04:30;;;;;;;2.85;2.45;;;14.00;91.50;;;;;;4963549;28;20043;-75
2021/04/24 01:06:58;;;;;;;3.15;2.80;;;14.00;91.60;;;;;;4946514;28;20043;-76
2021/04/24 01:10:04;;;;;;;3.92;2.55;;;14.00;91.80;;;;;;4962046;28;20074;-75
2021/04/24 01:12:32;;;;;;;4.80;3.22;;;13.90;92.20;;;;;;4962553;28;20051;-76
2021/04/24 01:15:22;;;;;;;3.75;2.67;;;13.80;92.50;;;;;;4955455;28;20047;-76
2021/04/24 01:17:50;;;;;;;3.45;2.50;;;13.80;92.80;;;;;;4929614;28;20420;-76
2021/04/24 01:20:18;;;;;;;3.13;2.20;;;13.60;93.00;;;;;;4962798;28;20182;-77
2021/04/24 01:22:49;;;;;;;2.53;2.10;;;13.60;92.90;;;;;;4968910;28;20452;-76
2021/04/24 01:25:19;;;;;;;2.40;1.80;;;13.60;92.50;;;;;;4945537;28;20053;-76
2021/04/24 01:27:49;;;;;;;2.35;1.60;;;13.50;92.30;;;;;;4943248;28;20942;-76
2021/04/24 01:30:20;;;;;;;2.13;1.55;;;13.50;92.00;;;;;;4959587;28;20456;-76
2021/04/24 01:32:48;;;;;;;2.17;1.88;;;13.50;91.80;;;;;;4971759;28;20061;-76
2021/04/24 01:35:20;;;;;;;2.10;1.77;;;13.40;91.90;;;;;;4943759;28;20540;-76
2021/04/24 01:37:50;;;;;;;2.13;1.38;;;13.30;91.90;;;;;;4960262;28;20723;-76
2021/04/24 01:40:19;;;;;;;1.70;1.50;;;13.30;91.80;;;;;;4963977;28;20057;-76
2021/04/24 01:42:48;;;;;;;2.75;1.60;;;13.40;91.80;;;;;;4961908;28;20515;-76
2021/04/24 01:45:18;;;;;;;3.33;1.55;;;13.50;91.40;;;;;;4965437;28;20387;-76
2021/04/24 01:47:47;;;;;;;3.15;1.85;;;13.50;91.20;;;;;;4961347;28;20045;-76
2021/04/24 01:50:18;;;;;;;3.63;1.63;;;13.40;91.30;;;;;;4942042;28;20054;-76
2021/04/24 01:52:49;;;;;;;2.10;1.70;;;13.40;91.50;;;;;;4957684;28;20039;-76
2021/04/24 01:55:21;;;;;;;1.77;1.60;;;13.40;91.80;;;;;;4963183;28;20142;-76
2021/04/24 01:57:50;;;;;;;1.90;1.70;;;13.30;92.10;;;;;;4976853;28;20166;-76
2021/04/24 02:08:03;;;;;;;3.10;1.70;;;13.20;93.00;;;;;;4980337;28;20354;-76
2021/04/24 02:27:09;;;;;;;2.38;1.40;;;13.00;92.30;;;;;;4938354;28;20066;-76
2021/04/24 02:42:12;;;;;;;1.58;1.48;;;12.90;92.70;;;;;;4939740;28;20081;-76
2021/04/24 02:52:58;;;;;;;4.60;1.75;;;12.70;94.30;;;;;;4936394;28;20972;-76
2021/04/24 03:07:46;;;;;;;2.35;1.05;;;12.50;92.80;;;;;;4907882;29;20494;-76
2021/04/24 03:10:15;;;;;;;1.75;1.30;;;12.50;92.80;;;;;;4890200;29;20071;-76
2021/04/24 03:14:13;;;;;;;2.13;1.63;;;12.40;92.50;;;;;;4834657;29;20321;-76
2021/04/24 03:21:02;;;;;;;1.77;1.27;;;12.50;92.10;;;;;;4833846;29;20511;-76
2021/04/24 03:36:00;;;;;;;2.65;1.60;;;12.30;92.20;;;;;;4739798;30;20133;-76
2021/04/24 03:46:46;;;;;;;2.10;1.20;;;12.40;91.60;;;;;;4763224;29;20585;-76
2021/04/24 03:57:34;;;;;;;2.25;1.40;;;12.20;91.90;;;;;;4840523;29;20099;-76
2021/04/24 04:01:36;;;;;;;2.97;1.70;;;12.00;92.80;;;;;;4874641;28;20090;-76
2021/04/24 04:08:11;;;;;;;1.88;1.38;;;11.80;95.30;;;;;;4943898;28;20665;-76
2021/04/24 04:18:57;;;;;;;;;;;11.60;95.00;;;;;;4944761;28;20150;-76
2021/04/24 04:29:33;;;;;;;2.38;1.50;;;11.40;95.00;;;;;;4880967;29;20759;-76
2021/04/24 04:36:09;;;;;;;2.55;1.70;;;11.60;94.00;;;;;;4884680;29;20080;-76
2021/04/24 04:46:47;;;;;;;3.95;1.77;;;11.70;93.80;;;;;;4866370;29;20258;-76
2021/04/24 04:49:16;;;;;;;3.38;1.60;;;11.50;94.80;;;;;;4856555;29;20056;-76
2021/04/24 05:04:20;;;;;;;2.42;1.60;;;11.70;94.30;;;;;;4816357;29;20199;-76
2021/04/24 05:06:50;;;;;;;2.40;1.58;;;11.70;93.50;;;;;;4814293;29;20058;-76
2021/04/24 05:09:22;;;;;;;3.63;2.30;;;11.60;92.90;;;;;;4790222;29;20478;-76
2021/04/24 05:11:50;;;;;;;3.25;1.88;;;11.70;93.00;;;;;;4797982;29;20074;-76
2021/04/24 05:14:17;;;;;;;3.58;1.77;;;11.80;92.80;;;;;;4838289;29;20578;-76
2021/04/24 05:16:45;;;;;;;5.20;1.83;;;11.80;92.70;;;;;;4916779;28;20421;-76
2021/04/24 05:19:13;;;;;;;5.75;1.77;;;12.00;92.80;;;;;;4936155;28;20043;-76
2021/04/24 05:21:42;;;;;;;2.92;1.90;;;12.10;92.40;;;;;;4934786;28;20047;-76
2021/04/24 05:24:11;;;;;;;1.85;1.40;;;12.20;92.30;;;;;;4970982;28;20096;-76
2021/04/24 05:26:39;;;;;;;4.05;1.40;;;12.20;92.00;;;;;;4982518;28;20143;-76
2021/04/24 05:29:06;;;;;;;2.42;1.55;;;12.30;92.10;;;;;;4990132;28;20039;-76
2021/04/24 05:31:34;;;;;;;2.33;1.60;;;12.40;91.60;;;;;;4986157;28;20523;-76
2021/04/24 05:34:02;;;;;;;2.67;1.35;;;12.30;91.80;;;;;;4977422;28;20538;-76
2021/04/24 05:36:30;;;;;;;3.25;2.00;;;12.20;92.20;;;;;;4970389;28;20046;-76
2021/04/24 05:38:58;;;;;;;4.30;2.05;;;12.10;92.50;;;;;;4962904;28;20474;-76
2021/04/24 05:41:26;;;;;;;4.38;2.00;;;12.20;93.50;;;;;;4982672;28;20046;-76
2021/04/24 05:43:56;;;;;;;5.70;2.78;;;12.40;93.10;;;;;;4969000;28;20126;-76
2021/04/24 05:46:24;;;;;;;4.75;4.00;;;12.40;93.10;;;;;;4965276;28;20090;-76
2021/04/24 05:48:52;;;;;;;4.00;3.15;;;12.20;93.10;;;;;;4978855;28;20057;-76
2021/04/24 05:51:20;;;;;;;5.07;3.22;;;12.10;93.80;;;;;;4967821;28;20460;-76
2021/04/24 05:53:51;;;;;;;6.88;3.63;;;12.40;92.70;;;;;;4982358;28;20113;-76
2021/04/24 05:56:22;;;;;;;3.70;2.72;;;12.60;91.50;;;;;;4968498;28;20041;-76
2021/04/24 05:58:50;;;;;;;5.97;3.17;;;12.70;89.80;;;;;;4991672;28;20050;-75
2021/04/24 06:01:18;;;;;;;3.88;2.90;;;12.80;89.70;;;;;;4969748;28;20046;-77
2021/04/24 06:03:46;;;;;;;6.30;3.10;;;13.00;89.30;;;;;;4994321;28;20484;-78
2021/04/24 06:06:15;;;;;;;5.55;2.95;;;13.20;88.70;;;;;;4955977;28;20178;-77
2021/04/24 06:08:42;;;;;;;3.22;2.70;;;13.20;88.10;;;;;;4978241;28;20250;-77
2021/04/24 06:11:10;;;;;;;3.83;2.80;;;13.20;87.70;;;;;;4987778;28;20491;-77
2021/04/24 06:13:38;;;;;;;3.58;2.70;;;13.30;87.70;;;;;;4993791;28;20046;-78
2021/04/24 06:16:06;;;;;;;6.45;3.38;;;13.40;87.40;;;;;;4983374;28;20137;-77
2021/04/24 06:18:34;;;;;;;3.28;2.50;;;13.50;87.30;;;;;;4982596;28;20519;-77
2021/04/24 06:21:02;;;;;;;3.10;2.80;;;13.60;87.30;;;;;;4988259;28;20608;-77
2021/04/24 06:23:30;;;;;;;3.67;2.30;;;13.60;88.30;;;;;;4959987;28;20066;-77
2021/04/24 06:25:57;;;;;;;3.80;2.38;;;13.70;89.00;;;;;;4951904;28;20587;-77
2021/04/24 06:28:25;;;;;;;3.13;2.13;;;13.70;89.30;;;;;;4991446;28;20041;-77
2021/04/24 06:30:53;;;;;;;3.40;2.30;;;13.80;89.20;;;;;;4963281;28;20595;-77
2021/04/24 06:33:21;;;;;;;3.40;2.40;;;13.90;89.10;;;;;;4974113;28;20053;-78
2021/04/24 06:35:49;;;;;;;4.03;2.40;;;13.90;88.40;;;;;;4983895;28;20120;-78
2021/04/24 06:38:17;;;;;;;4.35;3.10;;;13.80;89.40;;;;;;4958336;28;20052;-77
2021/04/24 06:40:44;;;;;;;4.93;2.92;;;13.80;89.80;;;;;;4973917;28;20058;-77
2021/04/24 06:43:12;;;;;;;3.47;2.85;;;13.80;89.40;;;;;;4968003;28;20603;-78
2021/04/24 06:45:39;;;;;;;2.92;2.50;;;14.00;89.00;;;;;;4968134;28;20145;-79
2021/04/24 06:48:08;;;;;;;3.83;2.80;;;14.20;88.10;;;;;;4971897;28;20414;-77
2021/04/24 06:50:36;;;;;;;3.85;2.83;;;14.30;87.70;;;;;;4972848;28;20101;-78
2021/04/24 06:53:04;;;;;;;3.83;2.80;;;14.30;87.20;;;;;;4988495;28;20057;-78
2021/04/24 06:55:32;;;;;;;5.63;2.55;;;14.40;86.60;;;;;;4973651;28;20042;-79
2021/04/24 06:57:59;;;;;;;4.38;2.65;;;14.50;85.60;;;;;;4971876;28;20054;-78
2021/04/24 07:00:27;;;;;;;3.63;2.47;;;14.50;84.90;;;;;;4974835;28;20422;-77
2021/04/24 07:02:55;;;;;;;4.93;2.33;;;14.60;85.90;;;;;;4990774;28;20057;-77
2021/04/24 07:05:24;;;;;;;3.78;2.75;;;14.70;86.00;;;;;;4994760;28;20349;-78
2021/04/24 07:07:51;;;;;;;5.28;2.67;;;14.80;85.70;;;;;;4952055;28;20164;-78
2021/04/24 07:10:19;;;;;;;5.28;2.83;;;14.80;86.00;;;;;;4977283;28;20388;-78
2021/04/24 07:12:47;;;;;;;4.03;2.90;;;14.80;85.70;;;;;;4968150;28;20057;-78
2021/04/24 07:15:15;;;;;;;4.85;3.17;;;14.90;85.20;;;;;;4975784;28;20046;-78
2021/04/24 07:17:43;;;;;;;8.35;3.13;;;14.90;85.30;;;;;;4988623;28;20045;-77
2021/04/24 07:20:12;;;;;;;4.85;3.22;;;14.90;85.60;;;;;;4969288;28;20042;-77
2021/04/24 07:22:42;;;;;;;4.07;2.75;;;15.00;86.10;;;;;;4988941;28;20038;-77
2021/04/24 07:25:10;;;;;;;4.38;2.80;;;15.00;85.90;;;;;;4975210;28;20145;-77
2021/04/24 07:27:38;;;;;;;12.63;9.77;;;15.10;85.40;;;;;;4966687;28;20051;-78
2021/04/24 07:30:07;;;;;;;13.27;9.80;;;15.20;85.60;;;;;;4990129;28;20042;-77
2021/04/24 07:32:36;;;;;;;7.82;6.00;;;15.30;85.60;;;;;;4980691;28;20046;-77
2021/04/24 07:35:05;;;;;;;6.60;4.65;;;15.40;85.80;;;;;;4992435;28;20042;-77
2021/04/24 07:37:33;;;;;;;4.38;3.00;;;15.50;85.60;;;;;;4965693;28;20053;-77
2021/04/24 07:40:02;;;;;;;4.22;3.20;;;15.60;84.60;;;;;;4973334;28;20516;-77
2021/04/24 07:42:29;;;;;;;5.35;2.70;;;15.70;84.60;;;;;;4951276;28;20046;-77
2021/04/24 07:44:57;;;;;;;5.70;2.78;;;15.80;83.60;;;;;;4971341;28;20053;-77
2021/04/24 07:47:25;;;;;;;6.25;3.20;;;15.90;84.00;;;;;;4985585;28;20046;-76
2021/04/24 07:49:52;;;;;;;6.88;2.80;;;16.00;83.70;;;;;;4974921;28;20050;-76
2021/04/24 07:52:21;;;;;;;3.92;2.55;;;16.10;84.20;;;;;;4965795;28;20416;-75
2021/04/24 07:54:48;;;;;;;3.60;2.13;;;16.30;83.40;;;;;;4970510;28;20054;-76
2021/04/24 07:57:17;;;;;;;5.82;2.28;;;16.40;83.20;;;;;;4966059;28;20137;-76
2021/04/24 07:59:45;;;;;;;5.35;2.20;;;16.50;82.80;;;;;;4973752;28;20062;-76
2021/04/24 08:02:13;;;;;;;3.50;2.20;;;16.70;82.30;;;;;;4950856;28;20043;-76
2021/04/24 08:04:41;;;;;;;4.82;2.40;;;16.80;82.20;;;;;;4974326;28;20050;-76
2021/04/24 08:07:10;;;;;;;4.28;2.08;;;17.00;82.20;;;;;;4970866;28;20635;-76
2021/04/24 08:09:39;;;;;;;5.53;1.90;;;17.10;81.90;;;;;;4971779;28;20035;-76
2021/04/24 08:12:07;;;;;;;2.85;2.05;;;17.30;79.20;;;;;;4973050;28;20043;-76
2021/04/24 08:14:36;;;;;;;3.75;1.55;;;17.50;77.50;;;;;;4963953;28;20053;-76
2021/04/24 08:17:04;;;;;;;3.70;1.17;;;17.60;75.20;;;;;;4978310;28;20050;-76
2021/04/24 08:19:31;;;;;;;1.98;1.10;;;17.60;72.30;;;;;;4974964;28;20035;-77
2021/04/24 08:21:59;;;;;;;13.57;9.60;;;17.70;70.80;;;;;;4975271;28;20039;-77
2021/04/24 08:24:27;;;;;;;4.50;2.13;;;17.90;70.70;;;;;;4967499;28;20079;-77
2021/04/24 08:26:55;;;;;;;1.85;1.15;;;18.10;69.50;;;;;;4969636;28;20213;-77
2021/04/24 08:29:22;;;;;;;2.28;1.20;;;18.10;68.70;;;;;;4953269;28;20054;-77
2021/04/24 08:31:51;;;;;;;3.60;1.00;;;18.40;67.30;;;;;;4971530;28;20073;-76
2021/04/24 08:34:25;;;;;;;1.92;1.10;;;18.50;67.30;;;;;;4969655;28;20049;-77
2021/04/24 08:36:52;;;;;;;3.72;1.08;;;18.60;67.60;;;;;;4966640;28;20034;-76
2021/04/24 08:39:25;;;;;;;2.90;1.30;;;18.70;66.00;;;;;;4968855;28;20046;-77
2021/04/24 08:41:53;;;;;;;2.90;0.90;;;18.70;65.40;;;;;;4974790;28;20058;-77
2021/04/24 08:44:20;;;;;;;2.55;1.17;;;18.80;64.60;;;;;;4969911;28;20069;-76
2021/04/24 08:46:50;;;;;;;2.50;1.35;;;18.90;65.00;;;;;;4968381;28;20404;-75
2021/04/24 08:49:20;;;;;;;2.30;1.52;;;19.10;65.70;;;;;;4964103;28;20113;-75
2021/04/24 08:51:49;;;;;;;2.70;1.38;;;19.20;65.50;;;;;;4967689;28;20585;-76
2021/04/24 08:54:17;;;;;;;3.85;2.58;;;19.30;65.10;;;;;;4969022;28;20402;-76
2021/04/24 08:56:45;;;;;;;7.18;5.38;;;19.50;65.30;;;;;;4968447;28;20064;-76
2021/04/24 08:59:13;;;;;;;6.55;3.03;;;19.40;64.90;;;;;;4968861;28;20472;-76
2021/04/24 09:01:42;;;;;;;5.15;2.50;;;19.40;65.20;;;;;;4968107;28;20474;-76
2021/04/24 09:04:09;;;;;;;2.85;2.00;;;19.40;65.20;;;;;;4960102;28;20046;-75
2021/04/24 09:06:38;;;;;;;3.97;1.45;;;19.40;66.20;;;;;;4969512;28;20038;-75
2021/04/24 09:09:07;;;;;;;2.05;1.40;;;19.50;65.50;;;;;;4966068;28;20608;-75
2021/04/24 09:11:42;;;;;;;2.17;1.27;;;19.60;64.70;;;;;;4966644;28;20437;-75
2021/04/24 09:14:12;;;;;;;2.30;1.10;;;19.70;64.10;;;;;;4966229;28;20131;-75
2021/04/24 09:16:41;;;;;;;3.17;1.10;;;19.80;64.30;;;;;;4976494;28;20125;-75
2021/04/24 09:19:30;;;;;;;1.75;1.45;;;20.00;63.90;;;;;;4968498;28;20058;-76
2021/04/24 09:22:17;;;;;;;3.83;1.52;;;19.90;64.80;;;;;;4961001;28;20054;-76
2021/04/24 09:24:46;;;;;;;3.38;1.27;;;20.00;64.30;;;;;;4967201;28;20059;-76
2021/04/24 09:27:14;;;;;;;3.35;1.35;;;20.20;64.10;;;;;;4963567;28;20034;-76
2021/04/24 09:30:13;;;;;;;3.05;1.40;;;20.20;64.10;;;;;;4968962;28;20049;-76
2021/04/24 09:32:40;;;;;;;2.28;1.33;;;20.20;62.80;;;;;;4972185;28;20045;-78
2021/04/24 09:35:09;;;;;;;5.32;3.88;;;20.10;63.20;;;;;;4948375;28;20125;-78
2021/04/24 09:37:38;;;;;;;5.45;2.83;;;20.00;63.60;;;;;;4971468;28;20038;-78
2021/04/24 09:40:11;;;;;;;4.68;1.67;;;20.10;63.10;;;;;;4971753;28;20042;-77
2021/04/24 09:42:39;;;;;;;2.50;1.27;;;20.10;63.40;;;;;;4949189;28;20066;-77
2021/04/24 09:45:26;;;;;;;2.10;1.08;;;20.00;63.40;;;;;;4952035;28;20047;-76
2021/04/24 09:47:55;;;;;;;2.70;1.33;;;20.10;61.90;;;;;;4965681;28;20527;-75
2021/04/24 09:50:29;;;;;;;3.15;1.40;;;20.20;62.80;;;;;;4968095;28;20414;-76
2021/04/24 09:53:19;;;;;;;2.70;1.15;;;20.40;62.10;;;;;;4950332;28;20390;-76
2021/04/24 09:55:47;;;;;;;3.53;1.00;;;20.50;61.70;;;;;;4962187;28;20460;-76
2021/04/24 09:58:28;;;;;;;5.30;1.40;;;20.60;61.00;;;;;;4968425;28;20058;-76
2021/04/24 10:00:58;;;;;;;4.00;1.38;;;20.70;61.20;;;;;;4964777;28;20560;-76
2021/04/24 10:03:39;;;;;;;3.33;1.30;;;20.80;61.00;;;;;;4968095;28;20045;-77
2021/04/24 10:06:31;;;;;;;4.03;1.70;;;20.80;60.40;;;;;;4958570;28;20055;-78
2021/04/24 10:09:18;;;;;;;4.45;1.60;;;20.80;60.40;;;;;;4977031;28;20121;-78
2021/04/24 10:12:08;;;;;;;2.38;1.35;;;20.80;60.10;;;;;;4948995;28;20054;-76
2021/04/24 10:14:40;;;;;;;3.55;1.08;;;21.20;59.70;;;;;;4965607;28;20094;-77
2021/04/24 10:17:09;;;;;;;3.42;1.30;;;21.30;60.20;;;;;;4969445;28;20486;-77
2021/04/24 10:19:37;;;;;;;2.20;0.90;;;21.50;60.60;;;;;;4964034;28;20054;-76
2021/04/24 10:22:08;;;;;;;2.80;1.00;;;21.60;59.30;;;;;;4973905;28;20132;-77
2021/04/24 10:24:37;;;;;;;5.13;1.40;;;21.70;60.10;;;;;;4964180;28;20174;-77
2021/04/24 10:27:06;;;;;;;2.03;0.90;;;21.70;60.80;;;;;;4969300;28;20650;-77
2021/04/24 10:29:34;;;;;;;2.08;1.00;;;21.40;60.90;;;;;;4968222;28;20053;-77
2021/04/24 10:32:02;;;;;;;1.55;1.02;;;21.50;59.80;;;;;;4971296;28;20117;-77
2021/04/24 10:34:30;;;;;;;1.73;1.10;;;22.00;58.60;;;;;;4965880;28;20121;-77
2021/04/24 10:36:57;;;;;;;3.03;1.20;;;22.20;58.00;;;;;;4970974;28;20046;-77
2021/04/24 10:39:26;;;;;;;3.38;1.30;;;22.40;57.80;;;;;;4964183;28;20157;-76
2021/04/24 10:42:10;;;;;;;3.42;1.50;;;22.60;57.00;;;;;;4974494;28;20043;-77
2021/04/24 10:44:50;;;;;;;2.08;1.10;;;22.60;57.80;;;;;;4969537;28;20907;-79
2021/04/24 10:47:43;;;;;;;4.85;1.20;;;22.50;58.50;;;;;;4957006;28;20352;-76
2021/04/24 10:50:13;;;;;;;1.85;0.90;;;22.70;57.90;;;;;;4966674;28;20038;-76
2021/04/24 10:52:43;;;;;;;4.65;2.00;;;22.90;56.50;;;;;;4985406;28;20429;-76
2021/04/24 10:55:20;;;;;;;2.83;1.63;;;23.00;57.00;;;;;;4973032;28;20038;-76
2021/04/24 10:57:54;;;;;;;2.50;1.15;;;23.10;56.50;;;;;;4966828;28;20055;-77
2021/04/24 11:00:24;;;;;;;2.95;1.30;;;23.30;55.50;;;;;;4965639;28;20460;-77
2021/04/24 11:02:54;;;;;;;4.60;1.27;;;23.40;56.90;;;;;;4972231;28;20043;-79
2021/04/24 11:05:25;;;;;;;3.80;1.17;;;23.40;55.50;;;;;;4970499;28;20047;-76
2021/04/24 11:08:36;;;;;;;5.57;1.10;;;23.60;55.90;;;;;;4976619;28;20567;-77
2021/04/24 11:11:06;;;;;;;3.30;1.08;;;23.60;55.50;;;;;;4969838;28;20413;-77
2021/04/24 11:13:37;;;;;;;2.10;1.10;;;23.60;55.50;;;;;;4966387;28;20137;-77
2021/04/24 11:16:07;;;;;;;4.97;1.10;;;23.70;55.90;;;;;;4958014;28;20898;-77
2021/04/24 11:18:36;;;;;;;2.47;1.20;;;23.70;56.10;;;;;;4963415;28;20039;-77
2021/04/24 11:21:05;;;;;;;3.55;1.30;;;23.40;55.40;;;;;;4965528;28;20098;-76
2021/04/24 11:23:48;;;;;;;2.47;0.98;;;23.60;55.40;;;;;;4963858;28;20057;-76
2021/04/24 11:26:20;;;;;;;2.20;0.90;;;23.90;56.20;;;;;;4964222;28;20061;-77
2021/04/24 11:29:07;;;;;;;1.98;1.17;;;24.00;56.60;;;;;;4970207;28;20137;-78
2021/04/24 11:32:05;;;;;;;2.13;1.17;;;24.00;55.50;;;;;;4967460;28;20051;-77
2021/04/24 11:34:45;;;;;;;10.68;9.27;;;24.10;55.80;;;;;;4972874;28;20054;-77
2021/04/24 11:37:33;;;;;;;2.38;1.50;;;24.10;55.20;;;;;;4948398;28;20051;-77
2021/04/24 11:40:29;;;;;;;2.72;1.05;;;23.70;55.30;;;;;;4972237;28;20427;-76
2021/04/24 11:43:03;;;;;;;2.13;1.23;;;23.90;55.70;;;;;;4964367;28;20050;-77
2021/04/24 11:46:08;;;;;;;4.22;1.38;;;24.30;56.10;;;;;;4965126;28;20066;-78
2021/04/24 11:49:01;;;;;;;4.95;1.52;;;24.00;56.10;;;;;;4968677;28;20050;-77
2021/04/24 11:51:37;;;;;;;3.90;1.40;;;24.30;54.60;;;;;;4947704;28;20105;-77
2021/04/24 11:54:06;;;;;;;1.27;0.90;;;24.50;54.90;;;;;;4976988;28;20043;-77
2021/04/24 11:56:35;;;;;;;2.70;1.20;;;24.60;54.30;;;;;;4962484;28;20047;-80
2021/04/24 11:59:03;;;;;;;1.48;0.90;;;24.70;53.60;;;;;;4965669;28;20157;-78
2021/04/24 12:01:31;;;;;;;1.35;0.93;;;24.40;55.10;;;;;;4963397;28;20142;-78
2021/04/24 12:04:00;;;;;;;5.45;1.45;;;24.30;55.40;;;;;;4969346;28;20572;-79
2021/04/24 12:06:39;;;;;;;1.60;1.10;;;24.30;55.80;;;;;;4964672;28;20062;-79
2021/04/24 12:09:10;;;;;;;3.53;1.13;;;24.30;54.80;;;;;;4956016;28;20047;-78
2021/04/24 12:11:40;;;;;;;1.33;1.13;;;24.60;54.70;;;;;;4963499;28;20039;-77
2021/04/24 12:14:08;;;;;;;2.03;0.90;;;24.80;54.50;;;;;;4972057;28;20047;-78
2021/04/24 12:16:43;;;;;;;3.05;1.17;;;24.90;54.00;;;;;;4972399;28;20053;-80
2021/04/24 12:19:33;;;;;;;1.80;1.00;;;24.90;52.70;;;;;;4968942;28;20060;-79
2021/04/24 12:22:21;;;;;;;2.40;0.95;;;24.80;53.00;;;;;;4953588;28;20043;-79
2021/04/24 12:24:56;;;;;;;1.38;1.05;;;24.90;52.70;;;;;;4966619;28;20495;-79
2021/04/24 12:27:30;;;;;;;2.58;1.00;;;25.00;52.50;;;;;;4964002;28;20076;-78
2021/04/24 12:29:59;;;;;;;2.35;1.30;;;25.20;53.00;;;;;;4951702;28;20125;-77
2021/04/24 12:32:31;;;;;;;4.93;3.03;;;25.20;52.10;;;;;;4968905;28;20035;-77
2021/04/24 12:35:13;;;;;;;7.72;4.78;;;25.20;52.40;;;;;;4964216;28;20654;-76
2021/04/24 12:37:42;;;;;;;9.10;1.98;;;25.40;52.40;;;;;;4963899;28;20057;-77
2021/04/24 12:40:16;;;;;;;3.40;1.20;;;25.40;52.00;;;;;;4965613;28;20050;-77
2021/04/24 12:42:44;;;;;;;5.15;1.48;;;25.40;50.90;;;;;;4966365;28;20078;-77
2021/04/24 12:45:20;;;;;;;4.40;1.40;;;25.50;52.30;;;;;;4965433;28;20039;-76
2021/04/24 12:47:48;;;;;;;2.25;1.30;;;25.70;52.40;;;;;;4973971;28;20054;-77
2021/04/24 12:50:29;;;;;;;1.77;0.93;;;25.60;52.40;;;;;;4967379;28;20832;-76
2021/04/24 12:52:59;;;;;;;1.85;1.10;;;25.60;51.90;;;;;;4974487;28;20740;-78
2021/04/24 12:55:38;;;;;;;2.70;1.00;;;25.70;51.80;;;;;;4968768;28;20065;-77
2021/04/24 12:58:08;;;;;;;1.30;1.00;;;25.70;51.30;;;;;;4969481;28;20134;-77
2021/04/24 13:00:41;;;;;;;1.80;1.10;;;25.80;50.40;;;;;;4961687;28;20109;-78
2021/04/24 13:03:28;;;;;;;1.42;0.82;;;25.90;52.20;;;;;;4940271;28;20390;-76
2021/04/24 13:05:58;;;;;;;1.92;0.73;;;26.00;52.70;;;;;;4967132;28;20061;-77
2021/04/24 13:08:26;;;;;;;3.45;1.17;;;25.80;52.20;;;;;;4963432;28;20086;-77
2021/04/24 13:11:08;;;;;;;2.42;1.20;;;25.60;52.80;;;;;;4964854;28;20492;-78
2021/04/24 13:13:36;;;;;;;2.53;1.23;;;25.60;51.50;;;;;;4960023;28;20046;-78
2021/04/24 13:16:05;;;;;;;2.88;1.02;;;25.90;52.00;;;;;;4972032;28;20389;-78
2021/04/24 13:18:42;;;;;;;2.92;1.20;;;25.70;52.30;;;;;;4962957;28;20462;-78
2021/04/24 13:21:22;;;;;;;1.98;1.20;;;25.80;50.40;;;;;;4969955;28;20090;-78
2021/04/24 13:24:05;;;;;;;1.38;1.00;;;25.90;50.70;;;;;;4949902;28;20133;-78
2021/04/24 13:26:34;;;;;;;5.22;1.13;;;25.80;52.60;;;;;;4963794;28;20091;-80
2021/04/24 13:29:23;;;;;;;4.05;1.13;;;25.80;51.60;;;;;;4966266;28;20129;-78
2021/04/24 13:32:06;;;;;;;2.78;1.20;;;26.10;52.00;;;;;;4959829;28;20050;-78
2021/04/24 13:34:39;;;;;;;1.80;1.10;;;26.50;51.00;;;;;;4955571;28;20054;-78
2021/04/24 13:37:11;;;;;;;2.63;1.88;;;26.80;50.70;;;;;;4966169;28;20139;-78
2021/04/24 13:39:47;;;;;;;2.30;1.10;;;26.90;50.60;;;;;;4962979;28;20046;-75
2021/04/24 13:42:17;;;;;;;;;;;27.20;50.90;;;;;;4963017;28;20051;-75
2021/04/24 13:44:47;;;;;;;2.80;1.10;;;27.40;48.80;;;;;;4967305;28;19925;-75
2021/04/24 13:47:23;;;;;;;2.47;1.83;;;27.50;49.20;;;;;;4946368;28;20531;-75
2021/04/24 13:49:52;;;;;;;3.85;2.30;;;27.70;50.10;;;;;;4964301;28;20121;-75
2021/04/24 13:52:21;;;;;;;2.85;1.42;;;27.70;49.70;;;;;;4949140;28;20052;-75
2021/04/24 13:54:50;;;;;;;1.65;0.98;;;27.80;50.10;;;;;;4970192;28;20043;-78
2021/04/24 13:57:19;;;;;;;1.90;1.33;;;27.80;48.80;;;;;;4961913;28;20047;-78
2021/04/24 13:59:47;;;;;;;2.03;1.55;;;28.00;48.00;;;;;;4961134;28;20061;-78
2021/04/24 14:02:16;;;;;;;0.98;0.80;;;28.30;49.10;;;;;;4967948;28;20084;-77
2021/04/24 14:04:44;;;;;;;2.28;1.30;;;28.50;48.20;;;;;;4968967;28;20113;-77
2021/04/24 14:07:12;;;;;;;2.70;1.77;;;28.80;48.60;;;;;;4951377;28;20500;-77
2021/04/24 14:09:42;;;;;;;1.73;1.15;;;28.90;47.60;;;;;;4973069;28;20125;-78
2021/04/24 14:12:10;;;;;;;3.95;1.20;;;29.00;48.30;;;;;;4958166;28;20479;-77
2021/04/24 14:14:38;;;;;;;1.83;0.98;;;29.10;47.50;;;;;;4969658;28;20051;-78
2021/04/24 14:17:07;;;;;;;2.13;0.93;;;29.40;47.20;;;;;;4964776;28;20448;-76
2021/04/24 14:19:36;;;;;;;2.30;1.30;;;29.70;47.90;;;;;;4969696;28;20074;-76
2021/04/24 14:22:06;;;;;;;3.25;1.15;;;29.80;47.30;;;;;;4958116;28;20043;-77
2021/04/24 14:24:34;;;;;;;3.03;1.23;;;29.90;47.40;;;;;;4956328;28;20085;-75
2021/04/24 14:27:04;;;;;;;1.67;0.98;;;30.10;48.00;;;;;;4967047;28;20478;-75
2021/04/24 14:29:32;;;;;;;2.60;0.98;;;30.30;46.30;;;;;;4967622;28;20050;-74
2021/04/24 14:31:59;;;;;;;3.63;1.67;;;30.40;46.90;;;;;;4964010;28;20051;-75
2021/04/24 14:34:27;;;;;;;2.03;0.93;;;30.50;46.90;;;;;;4964058;28;20078;-74
2021/04/24 14:36:55;;;;;;;1.50;0.80;;;30.70;45.50;;;;;;4975636;28;20081;-74
2021/04/24 14:39:23;;;;;;;3.03;1.20;;;30.80;45.90;;;;;;4964519;28;20042;-75
2021/04/24 14:41:51;;;;;;;6.93;1.15;;;31.00;45.20;;;;;;4969085;28;20042;-74
2021/04/24 14:44:20;;;;;;;2.50;1.02;;;31.10;44.80;;;;;;4961459;28;20055;-74
2021/04/24 14:46:48;;;;;;;1.80;1.13;;;31.30;47.00;;;;;;4964547;28;20046;-75
2021/04/24 14:49:16;;;;;;;2.67;0.90;;;31.50;45.90;;;;;;4961530;28;20476;-76
2021/04/24 14:51:44;;;;;;;3.60;0.95;;;31.80;44.10;;;;;;4962722;28;20054;-74
2021/04/24 14:54:12;;;;;;;4.45;1.67;;;31.90;45.70;;;;;;4962446;28;20039;-74
2021/04/24 14:56:40;;;;;;;1.48;1.10;;;31.90;45.10;;;;;;4965228;28;20050;-74
2021/04/24 14:59:08;;;;;;;3.60;1.45;;;32.00;45.90;;;;;;4960945;28;20057;-72
2021/04/24 15:01:37;;;;;;;1.88;1.35;;;32.00;46.60;;;;;;4964645;28;20050;-73
2021/04/24 15:04:06;;;;;;;3.50;1.10;;;32.20;45.00;;;;;;4961831;28;20950;-75
2021/04/24 15:06:34;;;;;;;1.55;1.10;;;32.50;45.30;;;;;;4958942;28;20066;-78
2021/04/24 15:09:04;;;;;;;3.58;1.30;;;32.50;44.50;;;;;;4955598;28;20070;-76
2021/04/24 15:11:32;;;;;;;2.20;1.17;;;32.70;43.60;;;;;;4966208;28;20034;-76
2021/04/24 15:14:00;;;;;;;2.70;1.02;;;33.00;43.50;;;;;;4962676;28;20404;-81
2021/04/24 15:16:28;;;;;;;2.20;1.35;;;33.00;43.20;;;;;;4964030;28;20065;-74
2021/04/24 15:18:57;;;;;;;2.25;1.02;;;32.80;43.20;;;;;;4962730;28;20039;-74
2021/04/24 15:21:25;;;;;;;2.80;1.48;;;32.90;44.30;;;;;;4967847;28;20141;-75
2021/04/24 15:23:53;;;;;;;2.10;1.13;;;33.10;42.60;;;;;;4953536;28;20170;-76
2021/04/24 15:26:22;;;;;;;2.00;0.95;;;32.80;42.40;;;;;;4965416;28;20050;-75
2021/04/24 15:28:51;;;;;;;2.65;1.15;;;32.80;42.70;;;;;;4969910;28;20065;-74
2021/04/24 15:31:20;;;;;;;1.80;1.23;;;32.90;42.00;;;;;;4965010;28;20050;-74